Time;durP1;ratioP1;P1;durP2;ratioP2;P2;SDS_P1;SDS_P2;PMS_P1;PMS_P2;Temp;Humidity;BMP_temperature;BMP_pressure;BME280_temperature;BME280_humidity;BME280_pressure;Samples;Min_cycle;Max_cycle;Signal;HPM_P1;HPM_P2
2023/08/09 00:01:57;;;;;;;0.50;0.50;;;;;;;15.82;91.77;100621.72;5188264;28;20501;-89
2023/08/09 00:04:47;;;;;;;2.47;1.40;;;;;;;15.79;92.45;100626.31;5206778;28;20566;-90
2023/08/09 00:07:38;;;;;;;0.60;0.52;;;;;;;15.83;91.52;100627.84;5193204;28;20023;-88
2023/08/09 00:10:29;;;;;;;0.98;0.98;;;;;;;15.81;92.28;100613.88;5205816;28;20083;-88
2023/08/09 00:13:20;;;;;;;0.65;0.65;;;;;;;15.86;91.80;100611.88;5196401;28;20059;-87
2023/08/09 00:16:11;;;;;;;0.55;0.55;;;;;;;15.85;91.67;100610.16;5191057;28;20025;-87
2023/08/09 00:19:02;;;;;;;1.10;0.82;;;;;;;15.77;92.54;100601.72;5189112;28;20099;-88
2023/08/09 00:21:53;;;;;;;3.17;1.30;;;;;;;15.88;92.06;100600.25;5186213;28;20451;-88
2023/08/09 00:24:44;;;;;;;0.47;0.47;;;;;;;15.77;92.87;100607.00;5199407;28;20060;-87
2023/08/09 00:27:35;;;;;;;1.77;0.38;;;;;;;15.82;93.04;100607.66;5192285;28;20026;-88
2023/08/09 00:30:26;;;;;;;0.70;0.63;;;;;;;15.88;92.12;100605.56;5196384;28;20357;-87
2023/08/09 00:33:16;;;;;;;5.03;0.60;;;;;;;15.84;93.09;100608.44;5187062;28;20385;-88
2023/08/09 00:36:07;;;;;;;0.38;0.38;;;;;;;15.95;91.96;100613.19;5185568;28;20037;-89
2023/08/09 00:38:58;;;;;;;0.30;0.30;;;;;;;16.01;91.47;100605.78;5216250;28;20481;-88
2023/08/09 00:41:49;;;;;;;0.47;0.47;;;;;;;15.96;91.76;100613.13;5186464;28;20048;-90
2023/08/09 00:44:39;;;;;;;1.00;1.00;;;;;;;15.95;92.25;100608.75;5201339;28;20096;-89
2023/08/09 00:47:32;;;;;;;0.95;0.95;;;;;;;16.12;91.56;100602.56;5202419;28;20029;-88
2023/08/09 00:50:23;;;;;;;0.30;0.30;;;;;;;15.87;93.15;100605.63;5200031;28;20029;-89
2023/08/09 00:53:14;;;;;;;0.40;0.40;;;;;;;15.98;92.32;100605.97;5188036;28;20063;-89
2023/08/09 00:56:05;;;;;;;0.25;0.25;;;;;;;16.03;90.47;100611.84;5187330;28;20121;-89
2023/08/09 00:58:56;;;;;;;0.40;0.40;;;;;;;16.07;91.75;100620.50;5189431;28;20045;-88
2023/08/09 01:01:46;;;;;;;0.40;0.40;;;;;;;16.03;91.53;100629.53;5197183;28;20044;-88
2023/08/09 01:04:38;;;;;;;0.50;0.50;;;;;;;16.14;90.50;100631.63;5200881;28;20070;-87
2023/08/09 01:07:37;;;;;;;0.40;0.40;;;;;;;16.06;92.21;100632.00;5189943;28;20026;-88
2023/08/09 01:10:41;;;;;;;0.30;0.30;;;;;;;16.10;91.29;100633.56;5204759;28;20044;-87
2023/08/09 01:13:32;;;;;;;0.50;0.50;;;;;;;16.11;90.76;100635.28;5188518;28;20511;-90
2023/08/09 01:16:25;;;;;;;1.33;1.23;;;;;;;16.02;93.64;100664.88;5205478;28;20041;-87
2023/08/09 01:19:46;;;;;;;0.30;0.30;;;;;;;15.99;90.83;100673.78;5192634;28;20044;-87
2023/08/09 01:22:44;;;;;;;0.43;0.43;;;;;;;16.01;88.86;100673.75;5194889;28;20045;-88
2023/08/09 01:25:35;;;;;;;0.20;0.20;;;;;;;15.93;88.19;100687.34;5210690;28;20066;-90
2023/08/09 01:28:26;;;;;;;0.20;0.20;;;;;;;16.14;86.39;100680.09;5196687;28;20029;-90
2023/08/09 01:31:17;;;;;;;0.60;0.60;;;;;;;16.00;85.53;100682.59;5217051;28;20032;-88
2023/08/09 01:34:08;;;;;;;0.20;0.20;;;;;;;15.87;86.21;100682.38;5195298;28;20025;-89
2023/08/09 01:37:10;;;;;;;0.30;0.30;;;;;;;16.06;84.87;100690.22;5205177;28;20093;-88
2023/08/09 01:40:08;;;;;;;0.50;0.50;;;;;;;15.99;84.94;100684.38;5199738;28;20029;-89
2023/08/09 01:43:00;;;;;;;0.28;0.28;;;;;;;15.97;85.00;100688.03;5192877;28;20143;-88
2023/08/09 01:45:51;;;;;;;0.28;0.28;;;;;;;15.93;84.67;100687.34;5217207;28;20611;-87
2023/08/09 01:48:42;;;;;;;0.20;0.20;;;;;;;15.97;84.37;100688.91;5189534;28;20022;-89
2023/08/09 01:51:33;;;;;;;0.80;0.80;;;;;;;15.98;84.16;100688.00;5202058;28;20037;-88
2023/08/09 01:54:24;;;;;;;0.80;0.50;;;;;;;16.03;83.72;100675.38;5200750;28;20554;-88
2023/08/09 01:57:15;;;;;;;0.28;0.28;;;;;;;15.95;83.85;100677.53;5220281;28;20040;-89
2023/08/09 02:00:08;;;;;;;0.60;0.60;;;;;;;15.96;83.64;100676.63;5193916;28;20036;-88
2023/08/09 02:02:59;;;;;;;0.30;0.30;;;;;;;15.94;83.41;100675.00;5195054;28;20025;-88
2023/08/09 02:05:50;;;;;;;0.45;0.45;;;;;;;15.87;84.15;100682.38;5194668;28;20468;-88
2023/08/09 02:08:42;;;;;;;0.55;0.55;;;;;;;15.89;83.79;100685.81;5226218;28;20034;-88
2023/08/09 02:11:33;;;;;;;0.38;0.38;;;;;;;15.82;84.01;100689.66;5211131;28;20033;-88
2023/08/09 02:14:24;;;;;;;0.20;0.20;;;;;;;15.92;83.08;100682.97;5196666;28;20122;-89
2023/08/09 02:17:14;;;;;;;0.30;0.30;;;;;;;15.87;83.23;100690.31;5197886;28;20036;-89
2023/08/09 02:20:06;;;;;;;0.32;0.32;;;;;;;15.92;82.56;100698.00;5204662;28;20094;-88
2023/08/09 02:22:58;;;;;;;0.43;0.43;;;;;;;15.89;83.16;100701.66;5213356;28;20043;-92
2023/08/09 02:25:49;;;;;;;1.10;0.47;;;;;;;15.88;83.26;100702.59;5217441;28;20116;-90
2023/08/09 02:28:39;;;;;;;0.20;0.20;;;;;;;15.94;82.81;100710.22;5222926;28;20058;-88
2023/08/09 02:31:31;;;;;;;0.30;0.30;;;;;;;15.99;82.19;100707.34;5211654;28;20045;-87
2023/08/09 02:34:22;;;;;;;0.20;0.20;;;;;;;16.03;82.44;100723.00;5210881;28;20258;-88
2023/08/09 02:37:13;;;;;;;2.15;0.93;;;;;;;15.78;84.20;100715.41;5192988;28;20333;-90
2023/08/09 02:40:06;;;;;;;0.40;0.40;;;;;;;15.92;82.55;100712.09;5197319;28;20594;-87
2023/08/09 02:42:57;;;;;;;0.30;0.30;;;;;;;16.01;81.92;100701.03;5208583;28;20021;-93
2023/08/09 02:45:48;;;;;;;0.30;0.25;;;;;;;15.97;82.30;100706.56;5218946;28;20025;-92
2023/08/09 02:48:41;;;;;;;0.30;0.30;;;;;;;16.08;81.71;100708.66;5226314;28;20025;-92
2023/08/09 02:51:32;;;;;;;0.30;0.30;;;;;;;16.01;81.69;100708.13;5209379;28;20063;-93
2023/08/09 02:54:23;;;;;;;0.47;0.47;;;;;;;16.02;81.48;100713.34;5216845;28;20041;-93
2023/08/09 02:57:14;;;;;;;0.30;0.30;;;;;;;16.06;81.48;100714.03;5213961;28;20033;-93
2023/08/09 03:00:06;;;;;;;1.27;1.23;;;;;;;16.09;81.35;100728.91;5221893;28;20044;-92
2023/08/09 03:02:58;;;;;;;0.50;0.50;;;;;;;16.13;81.23;100733.13;5229036;28;20087;-92
2023/08/09 03:05:49;;;;;;;2.80;0.40;;;;;;;15.99;82.44;100742.59;5226428;28;20066;-92
2023/08/09 03:08:40;;;;;;;0.52;0.52;;;;;;;16.03;81.18;100738.88;5209054;28;20059;-92
2023/08/09 03:11:30;;;;;;;0.28;0.28;;;;;;;16.09;81.22;100744.78;5225215;28;20024;-92
2023/08/09 03:14:21;;;;;;;0.20;0.20;;;;;;;16.11;80.85;100743.81;5228929;28;20028;-92
2023/08/09 03:17:12;;;;;;;0.20;0.20;;;;;;;16.15;80.81;100744.50;5213815;28;20017;-91
2023/08/09 03:20:13;;;;;;;0.30;0.30;;;;;;;16.16;80.82;100752.38;5232668;28;20060;-93
2023/08/09 03:23:07;;;;;;;0.32;0.32;;;;;;;16.12;80.88;100760.53;5224482;28;20044;-92
2023/08/09 03:25:57;;;;;;;0.25;0.25;;;;;;;16.15;81.25;100745.34;5213723;28;20051;-92
2023/08/09 03:28:48;;;;;;;0.30;0.30;;;;;;;16.11;80.71;100749.09;5215007;28;20029;-92
2023/08/09 03:31:39;;;;;;;0.30;0.30;;;;;;;16.08;81.36;100737.78;5227716;28;20021;-92
2023/08/09 03:34:30;;;;;;;0.20;0.20;;;;;;;16.11;80.87;100727.94;5223951;28;20056;-92
2023/08/09 03:37:21;;;;;;;0.30;0.30;;;;;;;16.10;80.71;100741.22;5221187;28;20029;-91
2023/08/09 03:40:12;;;;;;;0.20;0.20;;;;;;;16.08;81.11;100737.78;5218734;28;20040;-92
2023/08/09 03:43:03;;;;;;;0.30;0.30;;;;;;;16.18;81.25;100745.22;5229528;28;20041;-92
2023/08/09 03:45:54;;;;;;;0.28;0.28;;;;;;;16.12;81.31;100747.28;5221976;28;20068;-92
2023/08/09 03:48:45;;;;;;;0.28;0.28;;;;;;;16.10;81.05;100746.50;5224493;28;20025;-91
2023/08/09 03:51:35;;;;;;;0.40;0.40;;;;;;;16.05;81.38;100744.09;5224449;28;20026;-93
2023/08/09 03:54:26;;;;;;;0.35;0.35;;;;;;;16.12;81.07;100761.38;5213852;28;20048;-91
2023/08/09 03:57:18;;;;;;;0.30;0.30;;;;;;;16.09;80.70;100761.53;5223641;28;20021;-92
2023/08/09 04:00:13;;;;;;;0.50;0.50;;;;;;;16.09;80.48;100764.19;5229102;28;20073;-92
2023/08/09 04:03:04;;;;;;;0.40;0.40;;;;;;;16.13;80.17;100773.69;5206945;28;20021;-93
2023/08/09 04:05:55;;;;;;;0.50;0.50;;;;;;;16.12;80.45;100773.75;5223921;28;20037;-92
2023/08/09 04:08:46;;;;;;;0.55;0.55;;;;;;;16.03;81.30;100783.88;5220139;28;20056;-92
2023/08/09 04:11:37;;;;;;;0.20;0.20;;;;;;;16.02;80.90;100792.75;5222005;28;20109;-92
2023/08/09 04:14:27;;;;;;;0.20;0.20;;;;;;;16.05;80.58;100797.03;5214352;28;20043;-91
2023/08/09 04:17:18;;;;;;;0.20;0.20;;;;;;;16.07;80.25;100804.91;5228028;28;20025;-90
2023/08/09 04:20:11;;;;;;;0.30;0.30;;;;;;;16.09;80.90;100803.91;5214917;28;20120;-90
2023/08/09 04:23:03;;;;;;;0.20;0.20;;;;;;;15.99;82.55;100808.75;5226954;28;20029;-90
2023/08/09 04:25:57;;;;;;;0.28;0.28;;;;;;;15.77;84.83;100798.34;5210003;28;20188;-91
2023/08/09 04:28:48;;;;;;;0.35;0.35;;;;;;;15.84;83.28;100790.97;5204425;28;20025;-89
2023/08/09 04:31:39;;;;;;;1.13;0.85;;;;;;;15.87;82.22;100793.50;5202510;28;20020;-91
2023/08/09 04:34:29;;;;;;;0.40;0.40;;;;;;;15.92;81.63;100804.69;5211870;28;20045;-91
2023/08/09 04:37:20;;;;;;;2.08;1.27;;;;;;;15.98;81.94;100812.34;5217541;28;20040;-92
2023/08/09 04:40:12;;;;;;;0.40;0.40;;;;;;;15.93;83.31;100805.56;5228069;28;20014;-93
2023/08/09 04:43:03;;;;;;;0.50;0.50;;;;;;;15.96;81.04;100811.56;5202566;28;20100;-90
2023/08/09 04:45:54;;;;;;;0.70;0.70;;;;;;;16.00;80.89;100815.75;5205037;28;20053;-90
2023/08/09 04:48:45;;;;;;;0.40;0.40;;;;;;;16.01;80.85;100824.56;5214908;28;20029;-90
2023/08/09 04:51:36;;;;;;;0.22;0.22;;;;;;;16.00;81.31;100836.94;5226217;28;20033;-92
2023/08/09 04:54:27;;;;;;;0.30;0.30;;;;;;;16.02;80.85;100829.78;5230017;28;20121;-92
2023/08/09 04:57:17;;;;;;;0.40;0.40;;;;;;;16.04;80.61;100830.59;5220405;28;20025;-89
2023/08/09 05:00:13;;;;;;;0.20;0.20;;;;;;;16.04;80.29;100830.59;5223891;28;20022;-91
2023/08/09 05:03:04;;;;;;;1.40;0.90;;;;;;;16.04;80.15;100827.06;5233266;28;20029;-91
2023/08/09 05:05:56;;;;;;;0.40;0.40;;;;;;;16.03;80.47;100834.16;5224147;28;20009;-92
2023/08/09 05:08:47;;;;;;;1.23;0.50;;;;;;;16.04;79.60;100841.16;5225697;28;20032;-92
2023/08/09 05:11:37;;;;;;;0.63;0.43;;;;;;;16.04;80.01;100842.94;5231532;28;20017;-93
2023/08/09 05:14:28;;;;;;;0.43;0.40;;;;;;;16.04;80.31;100840.28;5219258;28;20249;-91
2023/08/09 05:17:19;;;;;;;0.55;0.55;;;;;;;16.06;79.90;100851.66;5218159;28;20017;-93
2023/08/09 05:20:11;;;;;;;1.20;1.10;;;;;;;16.07;80.11;100855.19;5218494;28;20124;-93
2023/08/09 05:23:02;;;;;;;0.60;0.50;;;;;;;16.06;79.70;100856.97;5216800;28;20040;-91
2023/08/09 05:25:52;;;;;;;0.85;0.60;;;;;;;16.09;79.56;100859.47;5216784;28;20090;-91
2023/08/09 05:28:43;;;;;;;0.50;0.50;;;;;;;16.04;79.95;100862.34;5192026;28;20021;-90
2023/08/09 05:31:34;;;;;;;1.35;1.02;;;;;;;16.08;79.91;100864.81;5190931;28;20037;-88
2023/08/09 05:34:25;;;;;;;0.50;0.50;;;;;;;16.09;79.95;100866.53;5189431;28;20029;-90
2023/08/09 05:37:16;;;;;;;0.40;0.40;;;;;;;16.02;80.73;100866.84;5203590;28;20377;-89
2023/08/09 05:40:09;;;;;;;0.20;0.20;;;;;;;16.04;80.02;100875.56;5190087;28;20560;-89
2023/08/09 05:43:00;;;;;;;0.32;0.32;;;;;;;16.07;79.75;100877.22;5195014;28;20033;-89
2023/08/09 05:45:50;;;;;;;0.30;0.30;;;;;;;16.11;79.64;100881.44;5209340;28;20299;-89
2023/08/09 05:48:41;;;;;;;0.35;0.35;;;;;;;16.12;79.77;100877.84;5185884;28;20474;-89
2023/08/09 05:51:32;;;;;;;0.30;0.30;;;;;;;16.15;80.24;100879.50;5189855;28;20120;-89
2023/08/09 05:54:24;;;;;;;0.30;0.30;;;;;;;16.11;80.19;100885.84;5216016;28;20429;-90
2023/08/09 05:57:14;;;;;;;0.30;0.30;;;;;;;16.11;80.35;100896.44;5209888;28;20033;-90
2023/08/09 06:00:11;;;;;;;0.50;0.50;;;;;;;16.02;80.97;100897.75;5188802;28;20041;-89
2023/08/09 06:03:02;;;;;;;0.40;0.40;;;;;;;16.08;80.40;100893.94;5217337;28;20037;-89
2023/08/09 06:05:52;;;;;;;0.98;0.63;;;;;;;16.08;80.71;100899.22;5194048;28;20087;-89
2023/08/09 06:08:44;;;;;;;0.30;0.30;;;;;;;16.13;80.17;100906.03;5193124;28;20459;-89
2023/08/09 06:11:35;;;;;;;0.50;0.50;;;;;;;16.15;80.35;100909.47;5216100;28;20631;-88
2023/08/09 06:14:26;;;;;;;0.20;0.20;;;;;;;16.19;79.78;100915.47;5199996;28;20049;-89
2023/08/09 06:17:17;;;;;;;0.63;0.63;;;;;;;16.21;80.02;100921.56;5197625;28;20124;-89
2023/08/09 06:20:08;;;;;;;1.23;0.70;;;;;;;16.22;80.01;100917.97;5200904;28;20044;-90
2023/08/09 06:22:59;;;;;;;0.95;0.95;;;;;;;16.25;80.06;100914.31;5202396;28;20029;-89
2023/08/09 06:25:50;;;;;;;0.45;0.45;;;;;;;16.25;80.27;100923.09;5207246;28;20061;-89
2023/08/09 06:28:41;;;;;;;0.50;0.50;;;;;;;16.25;80.38;100933.69;5193969;28;20028;-89
2023/08/09 06:31:31;;;;;;;0.65;0.65;;;;;;;16.33;79.91;100936.00;5203564;28;20025;-88
2023/08/09 06:34:22;;;;;;;7.03;1.55;;;;;;;16.33;79.78;100941.28;5189153;28;20033;-89
2023/08/09 06:37:13;;;;;;;0.43;0.43;;;;;;;16.31;80.08;100941.38;5199286;28;20036;-89
2023/08/09 06:40:07;;;;;;;0.28;0.28;;;;;;;16.37;80.05;100940.19;5201082;28;20027;-90
2023/08/09 06:42:57;;;;;;;0.30;0.30;;;;;;;16.39;79.84;100937.50;5201204;28;20021;-88
2023/08/09 06:45:52;;;;;;;0.75;0.75;;;;;;;16.39;79.49;100950.75;5199129;28;20120;-90
2023/08/09 06:48:43;;;;;;;0.50;0.50;;;;;;;16.40;79.67;100945.34;5206073;28;20025;-87
2023/08/09 06:51:33;;;;;;;0.50;0.50;;;;;;;16.45;79.37;100945.97;5203031;28;20049;-88
2023/08/09 06:54:24;;;;;;;1.27;0.47;;;;;;;16.47;79.77;100961.81;5224255;28;20029;-90
2023/08/09 06:57:15;;;;;;;0.75;0.75;;;;;;;16.50;79.46;100961.66;5213119;28;20036;-89
2023/08/09 07:00:15;;;;;;;0.25;0.25;;;;;;;16.53;79.41;100972.13;5188131;28;20107;-88
2023/08/09 07:03:07;;;;;;;0.75;0.75;;;;;;;16.57;79.35;100963.06;5184362;28;20059;-88
2023/08/09 07:05:58;;;;;;;0.80;0.65;;;;;;;16.57;79.42;100967.53;5187989;28;20025;-88
2023/08/09 07:08:49;;;;;;;0.82;0.73;;;;;;;16.60;80.24;100970.03;5200150;28;20087;-89
2023/08/09 07:11:39;;;;;;;0.40;0.40;;;;;;;16.66;79.81;100977.69;5192218;28;20032;-88
2023/08/09 07:14:30;;;;;;;0.38;0.38;;;;;;;16.71;79.66;100985.41;5186477;28;20139;-88
2023/08/09 07:17:21;;;;;;;1.73;1.30;;;;;;;16.75;79.72;100976.34;5183209;28;20112;-88
2023/08/09 07:20:14;;;;;;;1.13;1.10;;;;;;;16.78;79.33;100978.88;5186708;28;20386;-89
2023/08/09 07:23:05;;;;;;;0.88;0.88;;;;;;;16.77;79.59;100969.19;5187547;28;20488;-89
2023/08/09 07:25:56;;;;;;;0.52;0.52;;;;;;;16.82;79.49;100976.00;5192971;28;20041;-89
2023/08/09 07:28:46;;;;;;;0.40;0.40;;;;;;;16.81;79.99;100979.56;5207262;28;20024;-88
2023/08/09 07:31:37;;;;;;;0.30;0.30;;;;;;;16.79;79.94;100988.53;5210620;28;20021;-91
2023/08/09 07:34:28;;;;;;;2.65;0.98;;;;;;;16.85;79.92;100996.19;5182587;28;20496;-88
2023/08/09 07:37:19;;;;;;;0.50;0.50;;;;;;;16.98;79.05;100999.97;5188861;28;20052;-89
2023/08/09 07:40:14;;;;;;;0.57;0.57;;;;;;;17.01;78.92;100998.09;5196087;28;20064;-89
2023/08/09 07:43:05;;;;;;;1.00;0.95;;;;;;;17.04;79.27;100998.81;5189378;28;20032;-88
2023/08/09 07:45:55;;;;;;;0.73;0.73;;;;;;;17.08;79.75;101002.16;5190283;28;20033;-89
2023/08/09 07:48:46;;;;;;;0.55;0.55;;;;;;;17.05;79.46;101004.97;5200818;28;20053;-90
2023/08/09 07:51:37;;;;;;;3.50;1.48;;;;;;;17.20;78.72;101003.34;5195094;28;20037;-89
2023/08/09 07:54:28;;;;;;;2.92;1.67;;;;;;;17.08;78.98;101015.41;5198894;28;20036;-90
2023/08/09 07:57:18;;;;;;;2.15;1.75;;;;;;;17.10;79.54;101016.19;5216024;28;20383;-89
2023/08/09 08:00:12;;;;;;;1.17;0.68;;;;;;;17.19;79.22;101022.84;5196355;28;20033;-89
2023/08/09 08:03:03;;;;;;;0.35;0.35;;;;;;;17.26;78.97;101013.66;5194450;28;20125;-88
2023/08/09 08:05:54;;;;;;;0.45;0.45;;;;;;;17.26;79.71;101011.84;5193844;28;20473;-89
2023/08/09 08:08:45;;;;;;;1.35;0.50;;;;;;;17.33;79.40;101016.81;5202811;28;20025;-88
2023/08/09 08:11:36;;;;;;;0.80;0.80;;;;;;;17.29;79.35;101019.66;5185579;28;20036;-88
2023/08/09 08:14:27;;;;;;;0.90;0.80;;;;;;;17.25;78.45;101020.72;5203695;28;20048;-89
2023/08/09 08:17:17;;;;;;;0.50;0.50;;;;;;;17.31;78.31;101032.81;5208264;28;20480;-89
2023/08/09 08:20:15;;;;;;;0.40;0.40;;;;;;;17.40;78.72;101026.19;5201430;28;20398;-90
2023/08/09 08:23:06;;;;;;;0.88;0.77;;;;;;;17.39;79.05;101021.84;5190676;28;20083;-88
2023/08/09 08:25:57;;;;;;;0.60;0.60;;;;;;;17.39;79.14;101029.81;5194428;28;20514;-89
2023/08/09 08:28:48;;;;;;;1.00;1.00;;;;;;;17.40;79.05;101031.50;5204387;28;20028;-89
2023/08/09 08:31:38;;;;;;;0.30;0.30;;;;;;;17.38;78.23;101033.38;5203158;28;20039;-88
2023/08/09 08:34:31;;;;;;;0.77;0.60;;;;;;;17.38;78.52;101033.38;5202301;28;20044;-89
2023/08/09 08:37:23;;;;;;;1.67;1.13;;;;;;;17.40;78.17;101036.78;5202699;28;20120;-88
2023/08/09 08:40:21;;;;;;;0.82;0.82;;;;;;;17.46;78.54;101041.81;5194994;28;20396;-88
2023/08/09 08:43:11;;;;;;;1.70;1.27;;;;;;;17.50;78.56;101032.75;5207050;28;20092;-90
2023/08/09 08:46:04;;;;;;;0.50;0.50;;;;;;;17.52;78.09;101033.53;5219135;28;20041;-89
2023/08/09 08:48:59;;;;;;;0.68;0.68;;;;;;;17.48;76.92;101042.56;5201430;28;20174;-88
2023/08/09 08:51:54;;;;;;;0.52;0.52;;;;;;;17.49;76.79;101041.63;5186080;28;20037;-89
2023/08/09 08:54:45;;;;;;;0.82;0.80;;;;;;;17.59;77.50;101032.28;5209926;28;20167;-89
2023/08/09 08:57:37;;;;;;;0.32;0.32;;;;;;;17.59;77.59;101047.34;5197165;28;20097;-88
2023/08/09 09:00:28;;;;;;;0.30;0.30;;;;;;;17.63;76.71;101054.19;5201596;28;20042;-89
2023/08/09 09:03:19;;;;;;;0.20;0.20;;;;;;;17.65;76.37;101056.75;5202615;28;20112;-89
2023/08/09 09:06:10;;;;;;;0.50;0.50;;;;;;;17.53;74.68;101061.78;5189400;28;20061;-89
2023/08/09 09:09:11;;;;;;;0.22;0.22;;;;;;;17.49;75.82;101052.25;5190022;28;20026;-89
2023/08/09 09:12:02;;;;;;;0.43;0.43;;;;;;;17.55;75.32;101056.38;5215575;28;20091;-88
2023/08/09 09:14:53;;;;;;;1.30;1.00;;;;;;;17.51;74.25;101061.00;5186914;28;20041;-89
2023/08/09 09:17:44;;;;;;;0.50;0.50;;;;;;;17.45;73.27;101056.00;5214722;28;20033;-88
2023/08/09 09:20:37;;;;;;;0.20;0.20;;;;;;;17.49;73.17;101068.16;5200132;28;20064;-89
2023/08/09 09:23:29;;;;;;;0.40;0.40;;;;;;;17.68;74.41;101068.09;5197355;28;20053;-88
2023/08/09 09:26:20;;;;;;;0.40;0.40;;;;;;;17.70;73.53;101060.91;5198295;28;20029;-88
2023/08/09 09:29:12;;;;;;;0.30;0.30;;;;;;;17.68;75.23;101068.09;5196642;28;20054;-89
2023/08/09 09:32:07;;;;;;;0.30;0.30;;;;;;;17.53;70.49;101075.03;5190842;28;20033;-88
2023/08/09 09:34:58;;;;;;;0.57;0.57;;;;;;;17.45;70.78;101075.41;5196561;28;20277;-88
2023/08/09 09:37:51;;;;;;;0.60;0.60;;;;;;;17.68;73.46;101069.88;5201955;28;20043;-88
2023/08/09 09:40:42;;;;;;;0.43;0.43;;;;;;;17.69;72.39;101068.94;5197157;28;20024;-89
2023/08/09 09:43:36;;;;;;;1.05;1.05;;;;;;;17.66;71.19;101066.44;5203968;28;20488;-89
2023/08/09 09:46:27;;;;;;;1.13;0.50;;;;;;;17.69;72.41;101066.28;5200901;28;20139;-87
2023/08/09 09:49:18;;;;;;;1.58;0.60;;;;;;;17.72;72.64;101063.50;5208081;28;20048;-89
2023/08/09 09:52:09;;;;;;;0.57;0.57;;;;;;;17.76;72.85;101070.34;5187114;28;20120;-89
2023/08/09 09:55:01;;;;;;;0.47;0.47;;;;;;;17.85;71.88;101069.03;5223721;28;20553;-88
2023/08/09 09:57:53;;;;;;;0.30;0.30;;;;;;;17.85;71.26;101074.34;5187369;28;20044;-89
2023/08/09 10:00:52;;;;;;;0.28;0.28;;;;;;;17.86;70.24;101076.91;5224193;28;20056;-89
2023/08/09 10:03:44;;;;;;;0.45;0.45;;;;;;;17.93;71.12;101080.09;5208156;28;20089;-88
2023/08/09 10:06:39;;;;;;;0.40;0.40;;;;;;;17.97;68.74;101084.31;5217805;28;20035;-92
2023/08/09 10:09:31;;;;;;;0.60;0.60;;;;;;;18.09;68.90;101088.13;5231618;28;20029;-91
2023/08/09 10:12:22;;;;;;;0.47;0.47;;;;;;;18.07;65.11;101092.66;5213520;28;20030;-91
2023/08/09 10:15:17;;;;;;;0.38;0.38;;;;;;;18.07;65.35;101085.56;5226188;28;20139;-91
2023/08/09 10:18:14;;;;;;;0.80;0.45;;;;;;;18.15;68.27;101097.56;5227961;28;20096;-91
2023/08/09 10:21:07;;;;;;;0.75;0.75;;;;;;;18.04;66.04;101095.50;5241186;28;20218;-91
2023/08/09 10:24:07;;;;;;;0.30;0.30;;;;;;;18.18;67.66;101092.13;5224929;28;20016;-93
2023/08/09 10:27:01;;;;;;;0.52;0.47;;;;;;;18.21;66.25;101097.25;5241603;28;20020;-92
2023/08/09 10:30:05;;;;;;;0.30;0.30;;;;;;;18.30;66.48;101098.56;5231211;28;20018;-92
2023/08/09 10:32:57;;;;;;;0.22;0.22;;;;;;;18.30;63.75;101095.91;5215105;28;20041;-93
2023/08/09 10:35:54;;;;;;;0.50;0.50;;;;;;;18.41;66.52;101093.50;5220930;28;20033;-91
2023/08/09 10:38:45;;;;;;;0.47;0.40;;;;;;;18.53;66.70;101087.53;5216732;28;20023;-91
2023/08/09 10:41:36;;;;;;;0.40;0.40;;;;;;;18.61;64.37;101094.22;5233150;28;20309;-91
2023/08/09 10:44:42;;;;;;;0.30;0.30;;;;;;;18.67;63.21;101091.22;5213184;28;20037;-91
2023/08/09 10:47:33;;;;;;;0.30;0.30;;;;;;;18.78;64.65;101085.31;5213613;28;20036;-92
2023/08/09 10:50:31;;;;;;;0.40;0.40;;;;;;;18.90;64.31;101086.41;5217223;28;20038;-92
2023/08/09 10:53:21;;;;;;;1.35;0.68;;;;;;;18.95;64.10;101085.25;5212126;28;20351;-92
2023/08/09 10:56:27;;;;;;;0.20;0.20;;;;;;;19.06;63.12;101092.63;5215997;28;20017;-92
2023/08/09 10:59:24;;;;;;;0.20;0.20;;;;;;;19.05;61.08;101093.56;5223694;28;20150;-92
2023/08/09 11:02:16;;;;;;;0.28;0.28;;;;;;;19.15;61.98;101096.56;5232337;28;20029;-92
2023/08/09 11:05:08;;;;;;;0.20;0.20;;;;;;;19.24;60.69;101101.38;5221130;28;20311;-92
2023/08/09 11:08:09;;;;;;;0.30;0.30;;;;;;;19.34;61.37;101096.34;5218474;28;20017;-91
2023/08/09 11:11:01;;;;;;;0.95;0.85;;;;;;;19.45;61.11;101099.25;5209882;28;20657;-91
2023/08/09 11:13:52;;;;;;;0.45;0.45;;;;;;;19.48;60.55;101098.22;5217693;28;20097;-93
2023/08/09 11:16:44;;;;;;;0.28;0.28;;;;;;;19.54;59.92;101108.50;5227307;28;20017;-88
2023/08/09 11:19:35;;;;;;;0.20;0.20;;;;;;;19.53;59.90;101100.63;5217368;28;20055;-90
2023/08/09 11:22:26;;;;;;;0.45;0.43;;;;;;;19.63;60.47;101110.63;5219381;28;20073;-92
2023/08/09 11:25:16;;;;;;;0.35;0.35;;;;;;;19.63;60.19;101107.97;5210178;28;20021;-88
2023/08/09 11:28:13;;;;;;;0.90;0.82;;;;;;;19.78;61.36;101108.84;5204567;28;20017;-89
2023/08/09 11:31:03;;;;;;;0.20;0.20;;;;;;;19.73;60.32;101118.06;5207237;28;20021;-90
2023/08/09 11:33:59;;;;;;;0.20;0.20;;;;;;;19.90;60.83;101117.06;5210389;28;20012;-89
2023/08/09 11:36:53;;;;;;;0.20;0.20;;;;;;;19.95;61.08;101109.69;5208848;28;20404;-89
2023/08/09 11:39:44;;;;;;;0.28;0.28;;;;;;;19.93;60.18;101116.91;5208650;28;20029;-91
2023/08/09 11:42:35;;;;;;;0.20;0.20;;;;;;;20.00;58.39;101112.91;5197458;28;20072;-91
2023/08/09 11:45:26;;;;;;;7.18;1.58;;;;;;;20.04;57.99;101118.91;5201680;28;20123;-90
2023/08/09 11:48:31;;;;;;;5.55;0.68;;;;;;;20.10;58.27;101115.84;5211234;28;20021;-89
2023/08/09 11:51:22;;;;;;;0.65;0.63;;;;;;;20.27;57.73;101117.50;5203554;28;20041;-90
2023/08/09 11:54:13;;;;;;;0.20;0.20;;;;;;;20.28;57.54;101116.56;5203289;28;20044;-91
2023/08/09 11:57:06;;;;;;;0.30;0.30;;;;;;;20.28;57.33;101122.72;5205487;28;20074;-90
2023/08/09 11:59:56;;;;;;;0.38;0.38;;;;;;;20.45;56.70;101127.00;5210305;28;20126;-91
2023/08/09 12:02:49;;;;;;;0.40;0.40;;;;;;;20.48;56.88;101123.31;5202815;28;20166;-90
2023/08/09 12:05:41;;;;;;;0.28;0.28;;;;;;;20.67;55.16;101133.66;5210917;28;20032;-90
2023/08/09 12:08:36;;;;;;;0.20;0.20;;;;;;;20.64;52.66;101128.50;5204440;28;20189;-88
2023/08/09 12:11:27;;;;;;;5.05;1.05;;;;;;;20.78;55.33;101130.34;5200832;28;20156;-89
2023/08/09 12:14:18;;;;;;;0.20;0.20;;;;;;;20.98;54.24;101131.72;5201960;28;20035;-89
2023/08/09 12:17:20;;;;;;;0.40;0.40;;;;;;;21.02;56.59;101122.59;5202027;28;20281;-89
2023/08/09 12:20:11;;;;;;;0.38;0.38;;;;;;;21.13;54.34;101126.34;5197679;28;20497;-89
2023/08/09 12:23:02;;;;;;;0.20;0.20;;;;;;;21.28;55.02;101122.66;5209614;28;20095;-89
2023/08/09 12:25:53;;;;;;;0.20;0.20;;;;;;;21.32;55.12;101118.84;5197307;28;20032;-89
2023/08/09 12:28:43;;;;;;;0.20;0.20;;;;;;;21.41;55.26;101128.03;5190934;28;20021;-91
2023/08/09 12:31:34;;;;;;;0.20;0.20;;;;;;;21.53;52.33;101131.72;5205187;28;20044;-90
2023/08/09 12:34:26;;;;;;;0.28;0.28;;;;;;;21.53;53.91;101137.03;5189300;28;20039;-91
2023/08/09 12:37:17;;;;;;;0.20;0.20;;;;;;;21.64;54.86;101134.56;5194066;28;20037;-90
2023/08/09 12:40:09;;;;;;;0.30;0.30;;;;;;;21.66;52.78;101132.66;5193945;28;20029;-89
2023/08/09 12:43:00;;;;;;;0.30;0.30;;;;;;;21.65;52.70;101148.78;5199192;28;20067;-89
2023/08/09 12:45:51;;;;;;;0.22;0.22;;;;;;;21.73;54.12;101138.44;5199329;28;20028;-90
2023/08/09 12:48:42;;;;;;;0.35;0.35;;;;;;;21.81;52.13;101144.13;5195755;28;20025;-89
2023/08/09 12:51:33;;;;;;;0.20;0.20;;;;;;;21.91;51.56;101147.00;5194708;28;20033;-89
2023/08/09 12:54:24;;;;;;;0.35;0.35;;;;;;;21.79;51.86;101146.03;5193424;28;20040;-89
2023/08/09 12:57:15;;;;;;;0.30;0.30;;;;;;;21.75;51.74;101147.19;5195721;28;20166;-91
2023/08/09 13:00:07;;;;;;;0.30;0.30;;;;;;;21.82;50.98;101142.28;5190749;28;20223;-91
2023/08/09 13:02:58;;;;;;;0.45;0.45;;;;;;;22.11;52.58;101150.09;5198124;28;20488;-90
2023/08/09 13:05:49;;;;;;;0.57;0.57;;;;;;;22.05;50.41;101153.19;5218139;28;20041;-91
2023/08/09 13:08:40;;;;;;;0.30;0.30;;;;;;;21.81;49.69;101145.91;5193004;28;20028;-92
2023/08/09 13:11:30;;;;;;;0.30;0.30;;;;;;;22.08;51.86;101147.66;5198950;28;20021;-91
2023/08/09 13:14:21;;;;;;;0.40;0.40;;;;;;;22.03;49.56;101147.97;5202034;28;20069;-90
2023/08/09 13:17:12;;;;;;;0.30;0.30;;;;;;;22.27;51.86;101140.06;5203578;28;20047;-89
2023/08/09 13:20:03;;;;;;;4.15;0.30;;;;;;;22.46;51.50;101137.00;5190052;28;20029;-92